Time;durP1;ratioP1;P1;durP2;ratioP2;P2;SDS_P1;SDS_P2;PMS_P1;PMS_P2;Temp;Humidity;BMP_temperature;BMP_pressure;BME280_temperature;BME280_humidity;BME280_pressure;Samples;Min_cycle;Max_cycle;Signal;HPM_P1;HPM_P2
2023/06/04 00:01:51;;;;;;;;;;;;;;;30.51;33.93;94085.25;4974103;28;8969;-55
2023/06/04 00:04:29;;;;;;;;;;;;;;;30.51;34.15;94092.84;4971462;28;7555;-55
2023/06/04 00:06:57;;;;;;;;;;;;;;;30.48;33.91;94086.34;4977072;28;9036;-55
2023/06/04 00:09:42;;;;;;;;;;;;;;;30.48;33.96;94083.59;4988409;28;8693;-55
2023/06/04 00:12:32;;;;;;;;;;;;;;;30.48;33.24;94080.06;4990561;28;7158;-55
2023/06/04 00:15:10;;;;;;;;;;;;;;;30.46;33.24;94085.41;4972509;28;7111;-55
2023/06/04 00:17:49;;;;;;;;;;;;;;;30.46;32.99;94080.63;4971234;28;9007;-55
2023/06/04 00:20:31;;;;;;;;;;;;;;;30.45;32.93;94079.13;4988302;28;9046;-55
2023/06/04 00:23:17;;;;;;;;;;;;;;;30.45;34.13;94083.91;4986464;28;8085;-55
2023/06/04 00:25:55;;;;;;;;;;;;;;;30.44;34.02;94083.22;4996319;28;7481;-55
2023/06/04 00:28:30;;;;;;;;;;;;;;;30.41;33.92;94080.78;5056415;28;6964;-55
2023/06/04 00:30:58;;;;;;;;;;;;;;;30.42;33.62;94080.25;5044836;28;9316;-55
2023/06/04 00:33:24;;;;;;;;;;;;;;;30.39;34.07;94075.78;5053381;28;8650;-55
2023/06/04 00:35:51;;;;;;;;;;;;;;;30.41;33.62;94083.53;5044482;28;8797;-55
2023/06/04 00:38:17;;;;;;;;;;;;;;;30.39;33.02;94080.59;5021188;28;7058;-55
2023/06/04 00:40:44;;;;;;;;;;;;;;;30.40;34.20;94082.81;5019843;28;7107;-55
2023/06/04 00:43:10;;;;;;;;;;;;;;;30.38;33.99;94084.66;5042777;28;9068;-55
2023/06/04 00:45:37;;;;;;;;;;;;;;;30.38;32.92;94085.38;5043713;28;8965;-55
2023/06/04 00:48:07;;;;;;;;;;;;;;;30.38;33.64;94081.88;5026528;28;7144;-55
2023/06/04 00:51:13;;;;;;;;;;;;;;;30.37;32.85;94086.69;5043856;28;7220;-55
2023/06/04 00:53:47;;;;;;;;;;;;;;;30.35;32.96;94089.28;5046376;28;9132;-55
2023/06/04 00:56:28;;;;;;;;;;;;;;;30.36;33.16;94082.41;5025803;28;8915;-55
2023/06/04 00:58:55;;;;;;;;;;;;;;;30.33;33.74;94089.09;5061248;28;8721;-55
2023/06/04 01:01:50;;;;;;;;;;;;;;;30.33;33.97;94097.41;5049422;28;9024;-55
2023/06/04 01:05:11;;;;;;;;;;;;;;;30.33;33.98;94088.34;5032004;28;7662;-55
2023/06/04 01:07:48;;;;;;;;;;;;;;;30.30;32.82;94087.38;5045135;28;8968;-55
2023/06/04 01:10:16;;;;;;;;;;;;;;;30.30;33.85;94078.31;5044052;28;9126;-55
2023/06/04 01:13:12;;;;;;;;;;;;;;;30.30;32.86;94084.59;5048571;28;8682;-55
2023/06/04 01:15:44;;;;;;;;;;;;;;;30.29;33.15;94082.38;4992180;28;9072;-55
2023/06/04 01:18:24;;;;;;;;;;;;;;;30.29;33.40;94085.91;4985437;28;7264;-56
2023/06/04 01:21:12;;;;;;;;;;;;;;;30.28;33.40;94084.41;5007645;28;7015;-55
2023/06/04 01:24:23;;;;;;;;;;;;;;;30.27;33.53;94082.19;5000580;28;7043;-55
2023/06/04 01:26:51;;;;;;;;;;;;;;;30.26;33.54;94083.47;5004079;28;7030;-55
2023/06/04 01:29:29;;;;;;;;;;;;;;;30.25;32.81;94088.28;4992854;28;7033;-55
2023/06/04 01:32:08;;;;;;;;;;;;;;;30.23;33.88;94090.84;5008382;28;9132;-55
2023/06/04 01:34:44;;;;;;;;;;;;;;;30.23;32.88;94087.34;5005253;28;9168;-55
2023/06/04 01:37:21;;;;;;;;;;;;;;;30.22;32.82;94083.09;5007670;28;9025;-55
2023/06/04 01:39:48;;;;;;;;;;;;;;;30.19;32.58;94095.28;5006952;28;7254;-55
2023/06/04 01:43:07;;;;;;;;;;;;;;;30.21;33.89;94098.25;5004365;28;7314;-55
2023/06/04 01:45:33;;;;;;;;;;;;;;;30.16;33.82;94086.03;4952245;28;9028;-55
2023/06/04 01:48:05;;;;;;;;;;;;;;;30.13;33.50;94089.91;4952600;28;8933;-55
2023/06/04 01:50:32;;;;;;;;;;;;;;;30.17;33.30;94103.41;4952878;28;7050;-55
2023/06/04 01:53:07;;;;;;;;;;;;;;;30.18;32.82;94091.78;4970494;28;7222;-55
2023/06/04 01:55:34;;;;;;;;;;;;;;;30.16;33.33;94094.34;4980857;28;7127;-55
2023/06/04 01:58:22;;;;;;;;;;;;;;;30.17;33.95;94098.59;4999851;28;9023;-55
2023/06/04 02:01:02;;;;;;;;;;;;;;;30.16;32.85;94097.13;4983359;28;9064;-55
2023/06/04 02:04:15;;;;;;;;;;;;;;;30.15;33.25;94103.22;4995866;28;7355;-56
2023/06/04 02:06:43;;;;;;;;;;;;;;;30.14;33.16;94110.06;4982318;28;7261;-55
2023/06/04 02:09:28;;;;;;;;;;;;;;;30.13;33.28;94100.25;4985667;28;8756;-55
2023/06/04 02:12:29;;;;;;;;;;;;;;;30.12;33.67;94107.09;4988547;28;9089;-56
2023/06/04 02:14:57;;;;;;;;;;;;;;;30.10;32.86;94110.41;4949551;29;8099;-55
2023/06/04 02:17:25;;;;;;;;;;;;;;;30.10;32.69;94098.59;4946901;28;9857;-55
2023/06/04 02:19:51;;;;;;;;;;;;;;;30.11;33.62;94108.38;4964486;28;8697;-55
2023/06/04 02:22:19;;;;;;;;;;;;;;;30.10;33.45;94099.31;4967397;28;7309;-55
2023/06/04 02:24:49;;;;;;;;;;;;;;;30.10;32.39;94101.34;4984292;28;9094;-55
2023/06/04 02:27:28;;;;;;;;;;;;;;;30.09;33.08;94102.63;4974174;28;9224;-55
2023/06/04 02:30:10;;;;;;;;;;;;;;;30.04;32.68;94093.19;4989552;28;8975;-55
2023/06/04 02:32:40;;;;;;;;;;;;;;;30.08;32.80;94096.34;4964809;28;8745;-54
2023/06/04 02:35:07;;;;;;;;;;;;;;;30.07;33.24;94111.50;4965234;28;7132;-55
2023/06/04 02:37:34;;;;;;;;;;;;;;;30.07;32.93;94099.66;4988319;28;9056;-55
2023/06/04 02:40:10;;;;;;;;;;;;;;;30.07;32.91;94100.41;4963659;28;9148;-55
2023/06/04 02:42:39;;;;;;;;;;;;;;;30.04;32.30;94100.75;4978061;28;9367;-55
2023/06/04 02:45:07;;;;;;;;;;;;;;;30.05;32.27;94110.56;4983447;28;7156;-55
2023/06/04 02:47:34;;;;;;;;;;;;;;;30.04;32.69;94106.28;4952709;28;9077;-55
2023/06/04 02:50:15;;;;;;;;;;;;;;;30.03;32.38;94105.56;4996913;28;8277;-55
2023/06/04 02:52:43;;;;;;;;;;;;;;;30.04;32.77;94109.06;5021796;28;7257;-55
2023/06/04 02:55:11;;;;;;;;;;;;;;;30.03;32.27;94105.56;5047432;28;7407;-55
2023/06/04 02:57:59;;;;;;;;;;;;;;;29.98;33.51;94098.16;5062458;28;7371;-55
2023/06/04 03:00:35;;;;;;;;;;;;;;;29.98;33.13;94103.69;5061293;28;8238;-55
2023/06/04 03:03:09;;;;;;;;;;;;;;;29.97;33.29;94110.50;5027023;28;8706;-55
2023/06/04 03:05:39;;;;;;;;;;;;;;;29.98;33.13;94114.78;5047878;28;7260;-55
2023/06/04 03:08:20;;;;;;;;;;;;;;;29.99;33.01;94119.06;5047392;28;7045;-55
2023/06/04 03:10:47;;;;;;;;;;;;;;;29.97;33.36;94112.56;5031552;28;9448;-55
2023/06/04 03:13:16;;;;;;;;;;;;;;;29.98;32.66;94125.13;5057453;28;8751;-55
2023/06/04 03:15:48;;;;;;;;;;;;;;;29.96;32.38;94128.47;5059177;28;9615;-55
2023/06/04 03:18:23;;;;;;;;;;;;;;;29.96;32.81;94125.69;5029159;28;9059;-55
2023/06/04 03:20:57;;;;;;;;;;;;;;;29.96;33.03;94128.47;5031745;28;8443;-55
2023/06/04 03:23:35;;;;;;;;;;;;;;;29.94;33.34;94131.03;5042872;28;7250;-56
2023/06/04 03:26:06;;;;;;;;;;;;;;;29.93;32.60;94135.09;5030541;28;7247;-55
2023/06/04 03:28:33;;;;;;;;;;;;;;;29.93;33.17;94135.09;5026048;28;9225;-55
2023/06/04 03:31:21;;;;;;;;;;;;;;;29.92;32.48;94133.63;5056569;28;8251;-55
2023/06/04 03:33:56;;;;;;;;;;;;;;;29.91;33.48;94137.66;5034488;28;7273;-55
2023/06/04 03:36:37;;;;;;;;;;;;;;;29.91;32.99;94142.47;5039529;28;8728;-56
2023/06/04 03:39:05;;;;;;;;;;;;;;;29.88;33.46;94138.78;5059662;28;9417;-55
2023/06/04 03:41:31;;;;;;;;;;;;;;;29.90;32.97;94144.50;5062525;28;9369;-55
2023/06/04 03:44:07;;;;;;;;;;;;;;;29.88;33.01;94144.31;5061330;28;7352;-55
2023/06/04 03:46:47;;;;;;;;;;;;;;;29.86;33.13;94146.16;5035328;28;7045;-55
2023/06/04 03:49:29;;;;;;;;;;;;;;;29.87;32.79;94147.63;5044387;28;9599;-56
2023/06/04 03:52:04;;;;;;;;;;;;;;;29.84;32.80;94155.00;5059158;28;9089;-55
2023/06/04 03:54:39;;;;;;;;;;;;;;;29.86;32.19;94158.00;5044992;28;7038;-55
2023/06/04 03:57:35;;;;;;;;;;;;;;;29.86;32.25;94162.78;5045732;28;7123;-55
2023/06/04 04:00:03;;;;;;;;;;;;;;;29.85;33.00;94158.50;5030110;28;8707;-55
2023/06/04 04:02:30;;;;;;;;;;;;;;;29.82;33.01;94151.31;5032103;28;7438;-55
2023/06/04 04:04:56;;;;;;;;;;;;;;;29.82;32.54;94154.78;5028602;28;7051;-55
2023/06/04 04:07:24;;;;;;;;;;;;;;;29.83;32.84;94163.84;5040520;28;9221;-55
2023/06/04 04:09:58;;;;;;;;;;;;;;;29.84;33.37;94154.28;5033873;28;7026;-55
2023/06/04 04:12:25;;;;;;;;;;;;;;;29.79;33.02;94150.34;5033799;28;7171;-55
2023/06/04 04:15:30;;;;;;;;;;;;;;;29.82;33.34;94154.78;5044771;28;9043;-55
2023/06/04 04:18:17;;;;;;;;;;;;;;;29.79;33.33;94161.44;5033127;28;9303;-55
2023/06/04 04:20:44;;;;;;;;;;;;;;;29.81;32.16;94167.19;5031892;28;9305;-55
2023/06/04 04:23:13;;;;;;;;;;;;;;;29.82;33.41;94157.56;5032858;28;9035;-55
2023/06/04 04:26:16;;;;;;;;;;;;;;;29.82;34.11;94168.66;5059348;28;9077;-55
2023/06/04 04:28:52;;;;;;;;;;;;;;;29.84;34.64;94157.75;5017808;28;8691;-55
2023/06/04 04:31:30;;;;;;;;;;;;;;;29.83;34.10;94159.06;5033246;28;7106;-56
2023/06/04 04:33:57;;;;;;;;;;;;;;;29.80;34.15;94155.34;5027885;28;9102;-56
2023/06/04 04:36:40;;;;;;;;;;;;;;;29.80;33.84;94155.34;5026053;28;9025;-55
2023/06/04 04:39:06;;;;;;;;;;;;;;;29.80;34.14;94160.16;5049550;28;7720;-55
2023/06/04 04:41:35;;;;;;;;;;;;;;;29.83;34.51;94166.63;5031930;28;7026;-55
2023/06/04 04:44:30;;;;;;;;;;;;;;;29.84;33.71;94166.09;5047122;28;9076;-55
2023/06/04 04:47:06;;;;;;;;;;;;;;;29.85;33.73;94173.13;5033589;28;7273;-55
2023/06/04 04:49:41;;;;;;;;;;;;;;;29.83;33.87;94159.06;5031898;28;9126;-55
2023/06/04 04:52:27;;;;;;;;;;;;;;;29.84;34.13;94174.41;5063149;28;9039;-55
2023/06/04 04:55:11;;;;;;;;;;;;;;;29.84;34.24;94170.91;5059100;28;7111;-55
2023/06/04 04:57:50;;;;;;;;;;;;;;;29.84;34.43;94174.41;5027041;28;7047;-55
2023/06/04 05:00:17;;;;;;;;;;;;;;;29.83;34.11;94175.69;5054416;28;9166;-55
2023/06/04 05:02:54;;;;;;;;;;;;;;;29.84;33.20;94177.16;5041555;28;8687;-56
2023/06/04 05:05:33;;;;;;;;;;;;;;;29.84;33.46;94179.94;5022033;28;9042;-55
2023/06/04 05:08:03;;;;;;;;;;;;;;;29.84;33.84;94176.44;5024198;28;7400;-55
2023/06/04 05:10:38;;;;;;;;;;;;;;;29.84;34.12;94179.94;5033618;28;7148;-55
2023/06/04 05:13:17;;;;;;;;;;;;;;;29.83;33.61;94174.94;5042785;28;7469;-55
2023/06/04 05:16:11;;;;;;;;;;;;;;;29.81;33.63;94178.28;5033045;28;9003;-55
2023/06/04 05:18:44;;;;;;;;;;;;;;;29.77;32.83;94181.41;5030989;28;8258;-55
2023/06/04 05:21:12;;;;;;;;;;;;;;;29.75;33.37;94183.94;5056063;28;7350;-55
2023/06/04 05:23:57;;;;;;;;;;;;;;;29.76;33.44;94184.69;5025872;28;8722;-55
2023/06/04 05:26:34;;;;;;;;;;;;;;;29.72;33.73;94182.25;5057459;28;7130;-55
2023/06/04 05:29:04;;;;;;;;;;;;;;;29.74;33.00;94184.50;5027910;28;7283;-55
2023/06/04 05:31:33;;;;;;;;;;;;;;;29.74;32.78;94190.06;5058355;28;7146;-55
2023/06/04 05:34:04;;;;;;;;;;;;;;;29.72;32.72;94184.28;5032445;28;7048;-55
2023/06/04 05:36:33;;;;;;;;;;;;;;;29.73;34.02;94191.31;5023792;28;9111;-55
2023/06/04 05:39:02;;;;;;;;;;;;;;;29.72;33.62;94198.88;5045660;28;9096;-55
2023/06/04 05:41:29;;;;;;;;;;;;;;;29.73;33.45;94194.81;5026287;28;7966;-55
2023/06/04 05:43:59;;;;;;;;;;;;;;;29.73;33.36;94194.09;5030730;28;9112;-55
2023/06/04 05:46:25;;;;;;;;;;;;;;;29.69;33.12;94188.13;5038977;28;8773;-55
2023/06/04 05:48:55;;;;;;;;;;;;;;;29.69;32.85;94190.91;5026976;28;9055;-55
2023/06/04 05:51:31;;;;;;;;;;;;;;;29.69;33.62;94190.91;5026574;28;7045;-55
2023/06/04 05:53:58;;;;;;;;;;;;;;;29.70;33.24;94195.16;5040816;28;7434;-55
2023/06/04 05:56:26;;;;;;;;;;;;;;;29.72;33.53;94192.59;5042328;28;9083;-55
2023/06/04 05:59:26;;;;;;;;;;;;;;;29.72;34.50;94198.13;5025737;28;9458;-55
2023/06/04 06:01:53;;;;;;;;;;;;;;;29.70;34.32;94203.47;5004627;28;7088;-55
2023/06/04 06:04:29;;;;;;;;;;;;;;;29.69;34.13;94196.44;5000251;28;9144;-55
2023/06/04 06:07:06;;;;;;;;;;;;;;;29.68;33.80;94192.19;5012556;28;7229;-55
2023/06/04 06:09:32;;;;;;;;;;;;;;;29.67;33.82;94190.69;5020978;28;9087;-56
2023/06/04 06:12:17;;;;;;;;;;;;;;;29.66;34.19;94203.84;5018796;28;7041;-55
2023/06/04 06:14:55;;;;;;;;;;;;;;;29.66;34.14;94197.53;5016288;28;8490;-56
2023/06/04 06:17:30;;;;;;;;;;;;;;;29.62;34.66;94194.38;5005828;28;9060;-55
2023/06/04 06:20:09;;;;;;;;;;;;;;;29.63;34.52;94202.13;5002210;28;7019;-55
2023/06/04 06:22:35;;;;;;;;;;;;;;;29.67;33.97;94208.09;5000582;28;7471;-55
2023/06/04 06:25:40;;;;;;;;;;;;;;;29.66;34.19;94197.53;4999473;28;9109;-55
2023/06/04 06:28:16;;;;;;;;;;;;;;;29.67;34.07;94213.63;5000774;28;7925;-55
2023/06/04 06:30:44;;;;;;;;;;;;;;;29.68;34.50;94220.66;4996791;28;9460;-55
2023/06/04 06:33:21;;;;;;;;;;;;;;;29.69;34.79;94218.63;5011870;28;7117;-55
2023/06/04 06:36:02;;;;;;;;;;;;;;;29.71;33.59;94227.88;5004489;28;7252;-56
2023/06/04 06:38:40;;;;;;;;;;;;;;;29.69;33.58;94227.69;5030910;28;7541;-56
2023/06/04 06:41:13;;;;;;;;;;;;;;;29.67;33.65;94229.50;5040389;28;7927;-56
2023/06/04 06:43:39;;;;;;;;;;;;;;;29.69;34.05;94235.25;5024234;28;7334;-56
2023/06/04 06:46:05;;;;;;;;;;;;;;;29.65;34.08;94226.53;5044769;28;9079;-56
2023/06/04 06:48:43;;;;;;;;;;;;;;;29.66;34.01;94230.81;5041819;28;7117;-56
2023/06/04 06:51:09;;;;;;;;;;;;;;;29.66;34.10;94234.31;5007225;28;7228;-56
2023/06/04 06:53:34;;;;;;;;;;;;;;;29.67;34.21;94232.28;5040313;28;7231;-56
2023/06/04 06:56:01;;;;;;;;;;;;;;;29.67;34.09;94233.03;5028862;28;9095;-56
2023/06/04 06:58:27;;;;;;;;;;;;;;;29.67;33.97;94235.06;5036110;28;7129;-56
2023/06/04 07:00:56;;;;;;;;;;;;;;;29.66;34.36;94233.56;5038110;28;7023;-56
2023/06/04 07:03:22;;;;;;;;;;;;;;;29.66;34.11;94234.31;5038814;28;7222;-56
2023/06/04 07:05:55;;;;;;;;;;;;;;;29.68;33.88;94236.56;5054215;28;9346;-56
2023/06/04 07:08:26;;;;;;;;;;;;;;;29.65;34.35;94230.06;5040942;28;9106;-57
2023/06/04 07:10:57;;;;;;;;;;;;;;;29.67;34.30;94232.28;5026846;28;8605;-56
2023/06/04 07:13:23;;;;;;;;;;;;;;;29.64;34.66;94230.59;5053668;28;7295;-56
2023/06/04 07:15:49;;;;;;;;;;;;;;;29.66;34.32;94231.56;5038861;28;7249;-56
2023/06/04 07:18:21;;;;;;;;;;;;;;;29.65;34.31;94240.41;5039040;28;9136;-56
2023/06/04 07:20:50;;;;;;;;;;;;;;;29.67;34.43;94235.81;5045053;28;9025;-56
2023/06/04 07:23:35;;;;;;;;;;;;;;;29.65;33.94;94237.63;5045803;28;6856;-56
2023/06/04 07:26:05;;;;;;;;;;;;;;;29.69;34.00;94243.56;5044011;28;9074;-56
2023/06/04 07:28:51;;;;;;;;;;;;;;;29.70;34.69;94236.75;5024915;28;9462;-56
2023/06/04 07:31:24;;;;;;;;;;;;;;;29.70;34.73;94233.97;5036104;28;7059;-56
2023/06/04 07:33:50;;;;;;;;;;;;;;;29.70;34.20;94225.66;5039246;28;9394;-57
2023/06/04 07:36:16;;;;;;;;;;;;;;;29.71;34.27;94213.31;5039124;28;8196;-56
2023/06/04 07:38:43;;;;;;;;;;;;;;;29.74;34.33;94228.84;5026137;28;9046;-56
2023/06/04 07:41:12;;;;;;;;;;;;;;;29.75;34.73;94222.75;5025517;28;8385;-56
2023/06/04 07:43:46;;;;;;;;;;;;;;;29.75;34.63;94222.03;5029665;28;9271;-56
2023/06/04 07:46:12;;;;;;;;;;;;;;;29.76;34.39;94229.81;5026628;28;7355;-56
2023/06/04 07:48:48;;;;;;;;;;;;;;;29.78;34.65;94229.25;5045858;28;6975;-56
2023/06/04 07:51:19;;;;;;;;;;;;;;;29.78;34.73;94230.00;5027091;28;9518;-56
2023/06/04 07:53:47;;;;;;;;;;;;;;;29.79;35.33;94219.66;5041307;28;9031;-56
2023/06/04 07:56:23;;;;;;;;;;;;;;;29.79;34.83;94219.66;5023417;28;7187;-56
2023/06/04 07:58:55;;;;;;;;;;;;;;;29.80;34.30;94215.59;5036236;28;7045;-56
2023/06/04 08:01:55;;;;;;;;;;;;;;;29.82;35.18;94213.03;5062473;28;7873;-56
2023/06/04 08:04:39;;;;;;;;;;;;;;;29.82;34.06;94221.34;5043516;28;7092;-56
2023/06/04 08:07:14;;;;;;;;;;;;;;;29.83;35.34;94219.31;5035752;28;9028;-56
2023/06/04 08:09:45;;;;;;;;;;;;;;;29.83;34.32;94216.53;5031958;28;8777;-56
2023/06/04 08:12:43;;;;;;;;;;;;;;;29.83;34.30;94211.75;5044452;28;8975;-56
2023/06/04 08:15:19;;;;;;;;;;;;;;;29.82;34.33;94207.47;4991630;28;7048;-56
2023/06/04 08:17:54;;;;;;;;;;;;;;;29.79;35.31;94219.66;5008878;28;9107;-56
2023/06/04 08:20:37;;;;;;;;;;;;;;;29.79;34.75;94214.88;4991974;28;8714;-56
2023/06/04 08:23:21;;;;;;;;;;;;;;;29.80;35.38;94216.34;4990395;28;7278;-56
2023/06/04 08:25:47;;;;;;;;;;;;;;;29.80;34.83;94213.56;5007383;28;7115;-56
2023/06/04 08:28:38;;;;;;;;;;;;;;;29.83;35.61;94217.28;4971764;28;9060;-56
2023/06/04 08:31:16;;;;;;;;;;;;;;;29.82;34.78;94213.03;4992715;28;7258;-56
2023/06/04 08:33:46;;;;;;;;;;;;;;;29.83;35.59;94220.06;5008059;28;8460;-56
2023/06/04 08:36:15;;;;;;;;;;;;;;;29.85;35.50;94214.72;5008539;28;9077;-56
2023/06/04 08:38:54;;;;;;;;;;;;;;;29.85;34.62;94211.94;4990760;28;9405;-56
2023/06/04 08:41:37;;;;;;;;;;;;;;;29.85;35.66;94205.66;4973747;28;7356;-56
2023/06/04 08:44:06;;;;;;;;;;;;;;;29.86;35.23;94216.22;4985095;28;8085;-56
2023/06/04 08:46:32;;;;;;;;;;;;;;;29.88;35.85;94216.41;4985366;28;9144;-56
2023/06/04 08:49:02;;;;;;;;;;;;;;;29.86;35.96;94209.91;4987327;28;9042;-56
2023/06/04 08:51:36;;;;;;;;;;;;;;;29.88;36.02;94210.13;5010822;28;9579;-56
2023/06/04 08:54:38;;;;;;;;;;;;;;;29.89;35.73;94223.44;5031230;28;9360;-56
2023/06/04 08:57:26;;;;;;;;;;;;;;;29.87;35.41;94219.72;4990114;28;9053;-56
2023/06/04 09:00:21;;;;;;;;;;;;;;;29.88;34.97;94221.22;4971368;28;9265;-56
2023/06/04 09:03:03;;;;;;;;;;;;;;;29.88;35.00;94219.19;4931837;29;7110;-56
2023/06/04 09:05:45;;;;;;;;;;;;;;;29.90;35.19;94208.28;4932602;29;7247;-56
2023/06/04 09:08:34;;;;;;;;;;;;;;;29.90;35.27;94219.38;4931936;29;7042;-56
2023/06/04 09:11:06;;;;;;;;;;;;;;;29.89;35.43;94217.13;4916124;29;7540;-56
2023/06/04 09:13:45;;;;;;;;;;;;;;;29.90;35.48;94208.28;4912965;29;7294;-56
2023/06/04 09:16:13;;;;;;;;;;;;;;;29.91;36.08;94212.53;4945644;28;7294;-56
2023/06/04 09:18:51;;;;;;;;;;;;;;;29.95;35.48;94214.97;4912753;29;7346;-56
2023/06/04 09:22:05;;;;;;;;;;;;;;;29.95;35.08;94215.69;4946889;28;8960;-55
2023/06/04 09:24:44;;;;;;;;;;;;;;;29.95;35.78;94218.47;4929306;29;9063;-56
2023/06/04 09:27:22;;;;;;;;;;;;;;;29.95;36.10;94217.75;4943964;28;7377;-56
2023/06/04 09:29:53;;;;;;;;;;;;;;;29.97;35.37;94215.91;4945042;28;8295;-56
2023/06/04 09:32:23;;;;;;;;;;;;;;;29.98;35.01;94222.19;4948979;28;9141;-56
2023/06/04 09:35:14;;;;;;;;;;;;;;;29.96;35.33;94211.66;4964520;28;9211;-56
2023/06/04 09:37:42;;;;;;;;;;;;;;;29.98;35.87;94211.84;4948705;28;7894;-56
2023/06/04 09:40:11;;;;;;;;;;;;;;;29.98;35.94;94200.75;5014441;28;7691;-56
2023/06/04 09:43:03;;;;;;;;;;;;;;;29.99;36.02;94221.66;5030913;28;8798;-57
2023/06/04 09:45:33;;;;;;;;;;;;;;;29.96;35.70;94217.19;5040634;28;9074;-56
2023/06/04 09:48:31;;;;;;;;;;;;;;;29.97;35.79;94215.91;5053387;28;9112;-56
2023/06/04 09:51:46;;;;;;;;;;;;;;;29.98;36.26;94211.84;5040899;28;7018;-56
2023/06/04 09:57:53;;;;;;;;;;;;;;;30.00;35.71;94211.31;4966417;28;7283;-56
2023/06/04 10:00:23;;;;;;;;;;;;;;;30.00;36.12;94222.41;4964615;28;9292;-57
2023/06/04 10:03:17;;;;;;;;;;;;;;;30.00;35.54;94216.84;4966333;28;9065;-57
2023/06/04 10:06:09;;;;;;;;;;;;;;;30.03;35.70;94216.53;4967747;28;7276;-56
2023/06/04 10:08:41;;;;;;;;;;;;;;;30.06;35.26;94203.59;4967584;28;7278;-56
2023/06/04 10:11:30;;;;;;;;;;;;;;;30.07;35.55;94210.63;4965069;28;9058;-57
2023/06/04 10:14:38;;;;;;;;;;;;;;;30.06;36.28;94200.81;4966525;28;7096;-57
2023/06/04 10:17:17;;;;;;;;;;;;;;;30.06;36.81;94201.53;4961824;28;9158;-56
2023/06/04 10:20:20;;;;;;;;;;;;;;;30.08;35.43;94207.28;4950007;28;7037;-56
2023/06/04 10:23:00;;;;;;;;;;;;;;;30.09;35.94;94208.78;4928994;29;9543;-57
2023/06/04 10:25:40;;;;;;;;;;;;;;;30.08;36.23;94206.56;4931416;28;6982;-56
2023/06/04 10:28:10;;;;;;;;;;;;;;;30.10;35.67;94206.75;4938051;28;8717;-56
2023/06/04 10:30:36;;;;;;;;;;;;;;;30.10;36.07;94199.16;4937240;28;8615;-56
2023/06/04 10:33:34;;;;;;;;;;;;;;;30.12;35.91;94198.63;4953778;28;6990;-57
2023/06/04 10:36:25;;;;;;;;;;;;;;;30.14;35.72;94198.84;4964599;28;7212;-57
2023/06/04 10:39:08;;;;;;;;;;;;;;;30.13;36.14;94198.09;4981572;28;9551;-56
2023/06/04 10:41:45;;;;;;;;;;;;;;;30.10;35.78;94193.63;4984616;28;9393;-56
2023/06/04 10:44:32;;;;;;;;;;;;;;;30.12;36.72;94190.31;4948479;28;8532;-57
2023/06/04 10:47:46;;;;;;;;;;;;;;;30.10;35.72;94195.66;4966188;28;7366;-57
2023/06/04 10:50:26;;;;;;;;;;;;;;;30.11;36.57;94194.34;4947811;28;7140;-56
2023/06/04 10:53:05;;;;;;;;;;;;;;;30.07;37.07;94189.16;4982384;28;9151;-56
2023/06/04 10:55:58;;;;;;;;;;;;;;;30.08;36.73;94182.31;4978914;28;7301;-57
2023/06/04 10:58:46;;;;;;;;;;;;;;;30.12;36.30;94191.06;5039749;28;8280;-56
2023/06/04 11:01:26;;;;;;;;;;;;;;;30.08;37.27;94185.09;5040209;28;9066;-56
2023/06/04 11:03:58;;;;;;;;;;;;;;;30.09;37.01;94186.59;5052329;28;9314;-56
2023/06/04 11:06:27;;;;;;;;;;;;;;;30.11;37.09;94184.00;5029981;28;7251;-56
2023/06/04 11:09:08;;;;;;;;;;;;;;;30.13;37.29;94186.97;5025636;28;8854;-56
2023/06/04 11:11:43;;;;;;;;;;;;;;;30.14;36.27;94193.28;5023839;28;7226;-57
2023/06/04 11:14:15;;;;;;;;;;;;;;;30.15;36.35;94189.94;5054497;28;8972;-57
2023/06/04 11:16:45;;;;;;;;;;;;;;;30.15;36.70;94189.94;5040607;28;7824;-56
2023/06/04 11:19:12;;;;;;;;;;;;;;;30.17;36.54;94192.91;5025138;28;7237;-57
2023/06/04 11:21:40;;;;;;;;;;;;;;;30.16;36.85;94185.91;5059107;28;7445;-56
2023/06/04 11:24:23;;;;;;;;;;;;;;;30.18;36.10;94188.88;5028275;28;9079;-57
2023/06/04 11:26:59;;;;;;;;;;;;;;;30.18;36.93;94182.56;5038225;28;7327;-56
2023/06/04 11:29:33;;;;;;;;;;;;;;;30.20;36.16;94191.84;5042474;28;9340;-56
2023/06/04 11:32:27;;;;;;;;;;;;;;;30.20;36.85;94188.31;5056175;28;7046;-56
2023/06/04 11:35:08;;;;;;;;;;;;;;;30.24;36.68;94185.94;5010973;28;8575;-56
2023/06/04 11:37:35;;;;;;;;;;;;;;;30.24;35.47;94180.38;5011409;28;9111;-56
2023/06/04 11:40:20;;;;;;;;;;;;;;;30.24;35.49;94175.59;5006073;28;7133;-57
2023/06/04 11:42:54;;;;;;;;;;;;;;;30.22;36.19;94178.16;5025152;28;7301;-56
2023/06/04 11:45:38;;;;;;;;;;;;;;;30.22;35.54;94174.63;5011848;28;7176;-56
2023/06/04 11:48:05;;;;;;;;;;;;;;;30.20;36.28;94169.66;5027363;28;9191;-56
2023/06/04 11:50:47;;;;;;;;;;;;;;;30.20;36.39;94164.09;5010534;28;8719;-56
2023/06/04 11:53:13;;;;;;;;;;;;;;;30.22;36.09;94164.28;5010173;28;9080;-57
2023/06/04 11:55:42;;;;;;;;;;;;;;;30.24;36.29;94160.97;5011855;28;7015;-56
2023/06/04 11:58:33;;;;;;;;;;;;;;;30.27;35.77;94168.94;5013360;28;8826;-56
2023/06/04 12:01:28;;;;;;;;;;;;;;;30.26;35.34;94161.16;5025125;28;7312;-56
2023/06/04 12:03:54;;;;;;;;;;;;;;;30.27;35.90;94165.44;5022546;28;7054;-57
2023/06/04 12:06:21;;;;;;;;;;;;;;;30.29;35.64;94157.28;4999663;28;7416;-56
2023/06/04 12:08:53;;;;;;;;;;;;;;;30.33;35.59;94152.91;5019142;28;9059;-57
2023/06/04 12:11:35;;;;;;;;;;;;;;;30.33;36.30;94144.59;5008799;28;7990;-57
2023/06/04 12:14:06;;;;;;;;;;;;;;;30.33;36.16;94155.69;5025905;28;7151;-56
2023/06/04 12:16:38;;;;;;;;;;;;;;;30.34;35.85;94151.59;5043153;28;7120;-57
2023/06/04 12:19:27;;;;;;;;;;;;;;;30.36;35.61;94153.84;5029874;28;7691;-56
2023/06/04 12:22:07;;;;;;;;;;;;;;;30.38;36.29;94152.00;5026915;28;8236;-56
2023/06/04 12:25:00;;;;;;;;;;;;;;;30.39;35.88;94150.72;5031324;28;9220;-56
2023/06/04 12:27:29;;;;;;;;;;;;;;;30.39;36.38;94147.94;5013099;28;8688;-56
2023/06/04 12:29:59;;;;;;;;;;;;;;;30.43;35.43;94145.53;5034775;28;9802;-56
2023/06/04 12:32:29;;;;;;;;;;;;;;;30.43;35.15;94142.00;5053896;28;7362;-56
2023/06/04 12:35:00;;;;;;;;;;;;;;;30.42;34.97;94146.84;5034483;28;7720;-56
2023/06/04 12:37:27;;;;;;;;;;;;;;;30.46;34.82;94140.94;5039516;28;7526;-56
2023/06/04 12:39:57;;;;;;;;;;;;;;;30.46;35.97;94138.16;5045461;28;8825;-56
2023/06/04 12:42:23;;;;;;;;;;;;;;;30.46;34.76;94138.16;5022915;28;9189;-56
2023/06/04 12:45:07;;;;;;;;;;;;;;;30.47;34.93;94142.44;5032269;28;8817;-56
2023/06/04 12:47:35;;;;;;;;;;;;;;;30.46;35.46;94136.13;5038202;28;7701;-56
2023/06/04 12:50:02;;;;;;;;;;;;;;;30.48;35.21;94141.88;5027122;28;7235;-56
2023/06/04 12:52:35;;;;;;;;;;;;;;;30.49;34.74;94139.84;5020978;28;7263;-56
2023/06/04 12:55:24;;;;;;;;;;;;;;;30.47;33.95;94140.38;5056466;28;9479;-57
2023/06/04 12:57:52;;;;;;;;;;;;;;;30.50;34.22;94142.06;5030652;28;7170;-57
2023/06/04 13:00:19;;;;;;;;;;;;;;;30.50;33.88;94136.50;5024721;28;7592;-56
2023/06/04 13:02:46;;;;;;;;;;;;;;;30.48;33.02;94124.47;5028462;28;8772;-56
2023/06/04 13:05:43;;;;;;;;;;;;;;;30.47;33.73;94132.03;5022469;28;9016;-56
2023/06/04 13:08:24;;;;;;;;;;;;;;;30.54;33.84;94133.38;5024540;28;9104;-56
2023/06/04 13:11:06;;;;;;;;;;;;;;;30.54;33.32;94125.78;5024533;28;9024;-56
2023/06/04 13:13:47;;;;;;;;;;;;;;;30.57;32.55;94129.50;5027194;28;7263;-56
2023/06/04 13:16:13;;;;;;;;;;;;;;;30.59;33.48;94128.94;5008875;28;8304;-56
2023/06/04 13:18:40;;;;;;;;;;;;;;;30.60;32.58;94122.09;5020662;28;7029;-56
2023/06/04 13:21:09;;;;;;;;;;;;;;;30.62;32.30;94125.06;5018296;28;7255;-56
2023/06/04 13:23:39;;;;;;;;;;;;;;;30.63;31.77;94127.28;5019009;28;7433;-56
2023/06/04 13:26:05;;;;;;;;;;;;;;;30.64;32.12;94119.72;5020022;28;7085;-56
2023/06/04 13:28:34;;;;;;;;;;;;;;;30.66;31.53;94114.34;5020419;28;7346;-56
2023/06/04 13:31:01;;;;;;;;;;;;;;;30.67;32.58;94126.94;5002184;28;9135;-56
2023/06/04 13:33:41;;;;;;;;;;;;;;;30.68;32.13;94111.75;5008162;28;9316;-56
2023/06/04 13:36:09;;;;;;;;;;;;;;;30.70;31.40;94123.06;5006287;28;9379;-56
2023/06/04 13:38:41;;;;;;;;;;;;;;;30.72;31.21;94128.78;5026269;28;7022;-56
2023/06/04 13:41:09;;;;;;;;;;;;;;;30.73;32.32;94119.19;5006711;28;7032;-56
2023/06/04 13:43:38;;;;;;;;;;;;;;;30.77;31.65;94116.78;5025142;28;9104;-56
2023/06/04 13:46:05;;;;;;;;;;;;;;;30.75;31.94;94116.59;5023766;28;9145;-57
2023/06/04 13:48:32;;;;;;;;;;;;;;;30.78;33.02;94121.03;5023898;28;7491;-56
2023/06/04 13:50:59;;;;;;;;;;;;;;;30.80;31.88;94121.25;5026628;28;9077;-56